sensor_id;sensor_type;location;lat;lon;timestamp;P1;durP1;ratioP1;P2;durP2;ratioP2
10013;SDS011;45684;48.358;10.746;2022-09-06T00:01:19;4.70;;;3.93;;
10013;SDS011;45684;48.358;10.746;2022-09-06T00:03:48;4.20;;;3.80;;
10013;SDS011;45684;48.358;10.746;2022-09-06T00:06:17;4.43;;;3.73;;
10013;SDS011;45684;48.358;10.746;2022-09-06T00:08:46;4.20;;;3.90;;
10013;SDS011;45684;48.358;10.746;2022-09-06T00:11:15;4.73;;;4.10;;
10013;SDS011;45684;48.358;10.746;2022-09-06T00:13:45;4.03;;;3.60;;
10013;SDS011;45684;48.358;10.746;2022-09-06T00:16:15;4.43;;;3.70;;
10013;SDS011;45684;48.358;10.746;2022-09-06T00:18:44;2.97;;;2.40;;
10013;SDS011;45684;48.358;10.746;2022-09-06T00:21:13;3.30;;;3.00;;
10013;SDS011;45684;48.358;10.746;2022-09-06T00:23:43;3.57;;;2.80;;
10013;SDS011;45684;48.358;10.746;2022-09-06T00:26:11;3.87;;;3.50;;
10013;SDS011;45684;48.358;10.746;2022-09-06T00:28:39;7.83;;;3.90;;
10013;SDS011;45684;48.358;10.746;2022-09-06T00:31:09;3.80;;;3.50;;
10013;SDS011;45684;48.358;10.746;2022-09-06T00:33:38;3.90;;;3.50;;
10013;SDS011;45684;48.358;10.746;2022-09-06T00:36:06;4.50;;;3.60;;
10013;SDS011;45684;48.358;10.746;2022-09-06T00:38:35;3.97;;;3.40;;
10013;SDS011;45684;48.358;10.746;2022-09-06T00:41:04;4.17;;;3.77;;
10013;SDS011;45684;48.358;10.746;2022-09-06T00:43:32;6.40;;;3.67;;
10013;SDS011;45684;48.358;10.746;2022-09-06T00:46:00;4.50;;;3.83;;
10013;SDS011;45684;48.358;10.746;2022-09-06T00:48:30;5.20;;;3.87;;
10013;SDS011;45684;48.358;10.746;2022-09-06T00:50:59;6.10;;;3.90;;
10013;SDS011;45684;48.358;10.746;2022-09-06T00:53:30;4.10;;;3.80;;
10013;SDS011;45684;48.358;10.746;2022-09-06T00:55:58;5.47;;;3.90;;
10013;SDS011;45684;48.358;10.746;2022-09-06T00:58:30;3.87;;;3.57;;
10013;SDS011;45684;48.358;10.746;2022-09-06T01:00:58;3.93;;;3.63;;
10013;SDS011;45684;48.358;10.746;2022-09-06T01:03:26;4.50;;;3.90;;
10013;SDS011;45684;48.358;10.746;2022-09-06T01:05:57;4.00;;;3.70;;
10013;SDS011;45684;48.358;10.746;2022-09-06T01:08:35;3.93;;;3.63;;
10013;SDS011;45684;48.358;10.746;2022-09-06T01:11:23;5.47;;;3.53;;
10013;SDS011;45684;48.358;10.746;2022-09-06T01:14:08;4.33;;;3.80;;
10013;SDS011;45684;48.358;10.746;2022-09-06T01:16:49;4.30;;;3.87;;
10013;SDS011;45684;48.358;10.746;2022-09-06T01:22:28;4.17;;;3.77;;
10013;SDS011;45684;48.358;10.746;2022-09-06T01:25:17;6.63;;;3.93;;
10013;SDS011;45684;48.358;10.746;2022-09-06T01:28:13;4.00;;;3.70;;
10013;SDS011;45684;48.358;10.746;2022-09-06T01:30:52;4.60;;;4.17;;
10013;SDS011;45684;48.358;10.746;2022-09-06T01:33:28;4.07;;;3.77;;
10013;SDS011;45684;48.358;10.746;2022-09-06T01:36:04;4.27;;;3.97;;
10013;SDS011;45684;48.358;10.746;2022-09-06T01:38:37;5.97;;;4.17;;
10013;SDS011;45684;48.358;10.746;2022-09-06T01:41:05;3.93;;;3.63;;
10013;SDS011;45684;48.358;10.746;2022-09-06T01:43:37;7.93;;;4.30;;
10013;SDS011;45684;48.358;10.746;2022-09-06T01:46:09;9.17;;;4.40;;
10013;SDS011;45684;48.358;10.746;2022-09-06T01:48:48;8.83;;;4.57;;
10013;SDS011;45684;48.358;10.746;2022-09-06T01:51:28;5.83;;;4.20;;
10013;SDS011;45684;48.358;10.746;2022-09-06T01:54:13;6.20;;;4.53;;
10013;SDS011;45684;48.358;10.746;2022-09-06T01:56:52;7.80;;;4.80;;
10013;SDS011;45684;48.358;10.746;2022-09-06T01:59:34;4.93;;;4.27;;
10013;SDS011;45684;48.358;10.746;2022-09-06T02:02:16;4.57;;;4.20;;
10013;SDS011;45684;48.358;10.746;2022-09-06T02:04:50;5.57;;;4.03;;
10013;SDS011;45684;48.358;10.746;2022-09-06T02:07:21;5.07;;;4.40;;
10013;SDS011;45684;48.358;10.746;2022-09-06T02:09:53;5.90;;;4.20;;
10013;SDS011;45684;48.358;10.746;2022-09-06T02:12:26;4.57;;;4.17;;
10013;SDS011;45684;48.358;10.746;2022-09-06T02:15:00;4.07;;;3.77;;
10013;SDS011;45684;48.358;10.746;2022-09-06T02:17:33;5.73;;;4.10;;
10013;SDS011;45684;48.358;10.746;2022-09-06T02:20:06;4.57;;;4.27;;
10013;SDS011;45684;48.358;10.746;2022-09-06T02:22:38;4.50;;;4.00;;
10013;SDS011;45684;48.358;10.746;2022-09-06T02:25:10;4.40;;;4.10;;
10013;SDS011;45684;48.358;10.746;2022-09-06T02:27:44;4.33;;;4.03;;
10013;SDS011;45684;48.358;10.746;2022-09-06T02:30:14;4.67;;;4.20;;
10013;SDS011;45684;48.358;10.746;2022-09-06T02:32:44;5.07;;;4.27;;
10013;SDS011;45684;48.358;10.746;2022-09-06T02:35:16;4.10;;;3.80;;
10013;SDS011;45684;48.358;10.746;2022-09-06T02:37:44;5.20;;;3.50;;
10013;SDS011;45684;48.358;10.746;2022-09-06T02:40:12;4.13;;;3.30;;
10013;SDS011;45684;48.358;10.746;2022-09-06T02:42:40;4.80;;;3.40;;
10013;SDS011;45684;48.358;10.746;2022-09-06T02:45:08;3.90;;;3.60;;
10013;SDS011;45684;48.358;10.746;2022-09-06T02:47:38;4.17;;;3.87;;
10013;SDS011;45684;48.358;10.746;2022-09-06T02:50:06;4.23;;;3.83;;
10013;SDS011;45684;48.358;10.746;2022-09-06T02:52:34;4.57;;;4.17;;
10013;SDS011;45684;48.358;10.746;2022-09-06T02:55:02;5.93;;;4.03;;
10013;SDS011;45684;48.358;10.746;2022-09-06T02:57:31;5.43;;;4.30;;
10013;SDS011;45684;48.358;10.746;2022-09-06T02:59:59;5.10;;;4.07;;
10013;SDS011;45684;48.358;10.746;2022-09-06T03:02:26;4.37;;;3.87;;
10013;SDS011;45684;48.358;10.746;2022-09-06T03:04:56;6.63;;;4.30;;
10013;SDS011;45684;48.358;10.746;2022-09-06T03:07:23;11.53;;;4.20;;
10013;SDS011;45684;48.358;10.746;2022-09-06T03:09:51;5.23;;;3.80;;
10013;SDS011;45684;48.358;10.746;2022-09-06T03:12:22;6.73;;;3.90;;
10013;SDS011;45684;48.358;10.746;2022-09-06T03:14:49;4.43;;;3.90;;
10013;SDS011;45684;48.358;10.746;2022-09-06T03:17:20;3.20;;;3.00;;
10013;SDS011;45684;48.358;10.746;2022-09-06T03:19:48;3.23;;;3.03;;
10013;SDS011;45684;48.358;10.746;2022-09-06T03:22:17;3.47;;;3.17;;
10013;SDS011;45684;48.358;10.746;2022-09-06T03:24:46;3.83;;;3.40;;
10013;SDS011;45684;48.358;10.746;2022-09-06T03:27:14;4.30;;;3.90;;
10013;SDS011;45684;48.358;10.746;2022-09-06T03:29:42;4.57;;;3.90;;
10013;SDS011;45684;48.358;10.746;2022-09-06T03:32:10;5.53;;;3.40;;
10013;SDS011;45684;48.358;10.746;2022-09-06T03:34:38;6.20;;;4.00;;
10013;SDS011;45684;48.358;10.746;2022-09-06T03:37:05;4.30;;;3.90;;
10013;SDS011;45684;48.358;10.746;2022-09-06T03:39:35;5.63;;;4.07;;
10013;SDS011;45684;48.358;10.746;2022-09-06T03:42:03;4.67;;;4.27;;
10013;SDS011;45684;48.358;10.746;2022-09-06T03:44:31;4.87;;;4.27;;
10013;SDS011;45684;48.358;10.746;2022-09-06T03:46:59;4.03;;;3.73;;
10013;SDS011;45684;48.358;10.746;2022-09-06T03:49:27;4.10;;;3.80;;
10013;SDS011;45684;48.358;10.746;2022-09-06T03:51:55;4.90;;;4.07;;
10013;SDS011;45684;48.358;10.746;2022-09-06T03:54:22;4.27;;;3.87;;
10013;SDS011;45684;48.358;10.746;2022-09-06T03:56:52;3.07;;;2.87;;
10013;SDS011;45684;48.358;10.746;2022-09-06T03:59:20;4.43;;;3.10;;
10013;SDS011;45684;48.358;10.746;2022-09-06T04:01:47;3.67;;;3.37;;
10013;SDS011;45684;48.358;10.746;2022-09-06T04:04:15;4.17;;;3.77;;
10013;SDS011;45684;48.358;10.746;2022-09-06T04:06:43;4.87;;;4.00;;
10013;SDS011;45684;48.358;10.746;2022-09-06T04:09:12;4.20;;;3.80;;
10013;SDS011;45684;48.358;10.746;2022-09-06T04:11:40;4.80;;;4.30;;
10013;SDS011;45684;48.358;10.746;2022-09-06T04:14:11;6.03;;;4.53;;
10013;SDS011;45684;48.358;10.746;2022-09-06T04:16:39;4.67;;;4.23;;
10013;SDS011;45684;48.358;10.746;2022-09-06T04:19:07;4.73;;;4.33;;
10013;SDS011;45684;48.358;10.746;2022-09-06T04:21:35;4.70;;;4.10;;
10013;SDS011;45684;48.358;10.746;2022-09-06T04:24:04;5.13;;;4.60;;
10013;SDS011;45684;48.358;10.746;2022-09-06T04:26:32;4.90;;;4.20;;
10013;SDS011;45684;48.358;10.746;2022-09-06T04:29:00;4.70;;;4.30;;
10013;SDS011;45684;48.358;10.746;2022-09-06T04:31:29;5.40;;;4.13;;
10013;SDS011;45684;48.358;10.746;2022-09-06T04:33:57;5.57;;;4.13;;
10013;SDS011;45684;48.358;10.746;2022-09-06T04:36:25;4.90;;;4.00;;
10013;SDS011;45684;48.358;10.746;2022-09-06T04:38:53;4.80;;;4.30;;
10013;SDS011;45684;48.358;10.746;2022-09-06T04:41:21;4.50;;;4.10;;
10013;SDS011;45684;48.358;10.746;2022-09-06T04:43:48;4.50;;;4.10;;
10013;SDS011;45684;48.358;10.746;2022-09-06T04:46:18;10.50;;;4.70;;
10013;SDS011;45684;48.358;10.746;2022-09-06T04:48:49;5.77;;;4.30;;
10013;SDS011;45684;48.358;10.746;2022-09-06T04:51:18;4.67;;;4.17;;
10013;SDS011;45684;48.358;10.746;2022-09-06T04:53:47;4.80;;;4.40;;
10013;SDS011;45684;48.358;10.746;2022-09-06T04:56:15;6.17;;;4.77;;
10013;SDS011;45684;48.358;10.746;2022-09-06T04:58:46;7.07;;;5.00;;
10013;SDS011;45684;48.358;10.746;2022-09-06T05:01:15;7.90;;;5.00;;
10013;SDS011;45684;48.358;10.746;2022-09-06T05:03:43;6.73;;;4.90;;
10013;SDS011;45684;48.358;10.746;2022-09-06T05:06:13;5.90;;;4.67;;
10013;SDS011;45684;48.358;10.746;2022-09-06T05:08:46;5.20;;;4.70;;
10013;SDS011;45684;48.358;10.746;2022-09-06T05:11:14;4.90;;;4.50;;
10013;SDS011;45684;48.358;10.746;2022-09-06T05:13:42;5.33;;;4.90;;
10013;SDS011;45684;48.358;10.746;2022-09-06T05:16:11;5.60;;;4.50;;
10013;SDS011;45684;48.358;10.746;2022-09-06T05:18:40;6.17;;;4.70;;
10013;SDS011;45684;48.358;10.746;2022-09-06T05:21:08;5.53;;;5.13;;
10013;SDS011;45684;48.358;10.746;2022-09-06T05:23:37;5.30;;;4.63;;
10013;SDS011;45684;48.358;10.746;2022-09-06T05:26:05;6.17;;;4.60;;
10013;SDS011;45684;48.358;10.746;2022-09-06T05:28:33;7.23;;;4.90;;
10013;SDS011;45684;48.358;10.746;2022-09-06T05:31:05;6.23;;;5.73;;
10013;SDS011;45684;48.358;10.746;2022-09-06T05:33:34;5.93;;;5.37;;
10013;SDS011;45684;48.358;10.746;2022-09-06T05:36:02;7.73;;;5.30;;
10013;SDS011;45684;48.358;10.746;2022-09-06T05:38:30;7.17;;;6.57;;
10013;SDS011;45684;48.358;10.746;2022-09-06T05:41:00;7.40;;;6.70;;
10013;SDS011;45684;48.358;10.746;2022-09-06T05:43:27;7.30;;;6.50;;
10013;SDS011;45684;48.358;10.746;2022-09-06T05:45:55;6.50;;;6.00;;
10013;SDS011;45684;48.358;10.746;2022-09-06T05:48:23;6.53;;;6.03;;
10013;SDS011;45684;48.358;10.746;2022-09-06T05:50:58;6.53;;;5.97;;
10013;SDS011;45684;48.358;10.746;2022-09-06T05:53:34;7.47;;;6.70;;
10013;SDS011;45684;48.358;10.746;2022-09-06T05:56:05;6.20;;;5.70;;
10013;SDS011;45684;48.358;10.746;2022-09-06T05:58:35;11.83;;;6.73;;
10013;SDS011;45684;48.358;10.746;2022-09-06T06:01:05;9.43;;;6.93;;
10013;SDS011;45684;48.358;10.746;2022-09-06T06:03:35;6.93;;;6.27;;
10013;SDS011;45684;48.358;10.746;2022-09-06T06:06:07;6.17;;;5.57;;
10013;SDS011;45684;48.358;10.746;2022-09-06T06:08:35;7.80;;;6.30;;
10013;SDS011;45684;48.358;10.746;2022-09-06T06:11:04;6.33;;;5.73;;
10013;SDS011;45684;48.358;10.746;2022-09-06T06:13:32;6.13;;;5.63;;
10013;SDS011;45684;48.358;10.746;2022-09-06T06:16:04;6.30;;;5.73;;
10013;SDS011;45684;48.358;10.746;2022-09-06T06:18:33;6.20;;;5.47;;
10013;SDS011;45684;48.358;10.746;2022-09-06T06:21:08;7.07;;;6.37;;
10013;SDS011;45684;48.358;10.746;2022-09-06T06:23:37;7.10;;;6.40;;
10013;SDS011;45684;48.358;10.746;2022-09-06T06:26:06;6.90;;;6.30;;
10013;SDS011;45684;48.358;10.746;2022-09-06T06:28:35;7.83;;;6.53;;
10013;SDS011;45684;48.358;10.746;2022-09-06T06:31:03;6.73;;;6.07;;
10013;SDS011;45684;48.358;10.746;2022-09-06T06:33:32;7.30;;;6.70;;
10013;SDS011;45684;48.358;10.746;2022-09-06T06:36:02;7.03;;;6.40;;
10013;SDS011;45684;48.358;10.746;2022-09-06T06:38:32;7.87;;;7.10;;
10013;SDS011;45684;48.358;10.746;2022-09-06T06:41:07;7.17;;;6.57;;
10013;SDS011;45684;48.358;10.746;2022-09-06T06:43:36;7.97;;;7.17;;
10013;SDS011;45684;48.358;10.746;2022-09-06T06:46:04;7.97;;;7.03;;
10013;SDS011;45684;48.358;10.746;2022-09-06T06:48:34;7.57;;;6.97;;
10013;SDS011;45684;48.358;10.746;2022-09-06T06:51:02;7.77;;;7.17;;
10013;SDS011;45684;48.358;10.746;2022-09-06T06:53:30;7.53;;;6.73;;
10013;SDS011;45684;48.358;10.746;2022-09-06T06:55:59;8.17;;;6.97;;
10013;SDS011;45684;48.358;10.746;2022-09-06T06:58:29;7.23;;;6.70;;
10013;SDS011;45684;48.358;10.746;2022-09-06T07:00:57;7.60;;;6.80;;
10013;SDS011;45684;48.358;10.746;2022-09-06T07:03:25;6.40;;;5.80;;
10013;SDS011;45684;48.358;10.746;2022-09-06T07:05:53;7.10;;;6.40;;
10013;SDS011;45684;48.358;10.746;2022-09-06T07:08:38;5.87;;;5.47;;
10013;SDS011;45684;48.358;10.746;2022-09-06T07:11:07;8.03;;;6.27;;
10013;SDS011;45684;48.358;10.746;2022-09-06T07:13:37;7.03;;;6.33;;
10013;SDS011;45684;48.358;10.746;2022-09-06T07:16:06;6.83;;;6.13;;
10013;SDS011;45684;48.358;10.746;2022-09-06T07:18:35;7.00;;;6.33;;
10013;SDS011;45684;48.358;10.746;2022-09-06T07:21:10;6.93;;;6.40;;
10013;SDS011;45684;48.358;10.746;2022-09-06T07:23:59;6.73;;;6.23;;
10013;SDS011;45684;48.358;10.746;2022-09-06T07:26:32;6.50;;;5.90;;
10013;SDS011;45684;48.358;10.746;2022-09-06T07:29:03;6.43;;;5.83;;
10013;SDS011;45684;48.358;10.746;2022-09-06T07:31:32;5.73;;;5.17;;
10013;SDS011;45684;48.358;10.746;2022-09-06T07:34:20;5.60;;;5.17;;
10013;SDS011;45684;48.358;10.746;2022-09-06T07:36:50;5.30;;;4.90;;
10013;SDS011;45684;48.358;10.746;2022-09-06T07:39:19;5.70;;;5.20;;
10013;SDS011;45684;48.358;10.746;2022-09-06T07:41:47;6.77;;;4.53;;
10013;SDS011;45684;48.358;10.746;2022-09-06T07:44:16;5.20;;;4.80;;
10013;SDS011;45684;48.358;10.746;2022-09-06T07:46:44;5.67;;;5.10;;
10013;SDS011;45684;48.358;10.746;2022-09-06T07:49:12;4.80;;;4.40;;
10013;SDS011;45684;48.358;10.746;2022-09-06T07:51:40;4.97;;;4.47;;
10013;SDS011;45684;48.358;10.746;2022-09-06T07:54:08;5.60;;;4.10;;
10013;SDS011;45684;48.358;10.746;2022-09-06T07:56:55;4.63;;;4.23;;
10013;SDS011;45684;48.358;10.746;2022-09-06T07:59:25;4.20;;;3.77;;
10013;SDS011;45684;48.358;10.746;2022-09-06T08:01:53;3.67;;;3.43;;
10013;SDS011;45684;48.358;10.746;2022-09-06T08:04:21;4.30;;;3.57;;
10013;SDS011;45684;48.358;10.746;2022-09-06T08:06:48;5.77;;;3.80;;
10013;SDS011;45684;48.358;10.746;2022-09-06T08:09:37;4.63;;;3.53;;
10013;SDS011;45684;48.358;10.746;2022-09-06T08:12:06;4.03;;;3.60;;
10013;SDS011;45684;48.358;10.746;2022-09-06T08:14:36;4.10;;;3.37;;
10013;SDS011;45684;48.358;10.746;2022-09-06T08:17:04;4.20;;;3.27;;
10013;SDS011;45684;48.358;10.746;2022-09-06T08:19:32;3.50;;;3.10;;
10013;SDS011;45684;48.358;10.746;2022-09-06T08:22:00;4.60;;;2.90;;
10013;SDS011;45684;48.358;10.746;2022-09-06T08:24:29;4.10;;;3.00;;
10013;SDS011;45684;48.358;10.746;2022-09-06T08:26:58;5.27;;;2.53;;
10013;SDS011;45684;48.358;10.746;2022-09-06T08:29:25;5.67;;;2.90;;
10013;SDS011;45684;48.358;10.746;2022-09-06T08:31:55;3.30;;;2.40;;
10013;SDS011;45684;48.358;10.746;2022-09-06T08:34:23;3.70;;;2.23;;
10013;SDS011;45684;48.358;10.746;2022-09-06T08:36:51;3.77;;;2.20;;
10013;SDS011;45684;48.358;10.746;2022-09-06T08:39:19;2.97;;;2.33;;
10013;SDS011;45684;48.358;10.746;2022-09-06T08:41:48;2.83;;;2.10;;
10013;SDS011;45684;48.358;10.746;2022-09-06T08:44:21;2.50;;;2.10;;
10013;SDS011;45684;48.358;10.746;2022-09-06T08:47:12;4.53;;;2.50;;
10013;SDS011;45684;48.358;10.746;2022-09-06T08:49:41;2.97;;;2.20;;
10013;SDS011;45684;48.358;10.746;2022-09-06T08:52:22;3.33;;;2.00;;
10013;SDS011;45684;48.358;10.746;2022-09-06T08:54:57;2.67;;;2.13;;
10013;SDS011;45684;48.358;10.746;2022-09-06T08:57:40;2.55;;;2.10;;
10013;SDS011;45684;48.358;10.746;2022-09-06T09:00:18;3.13;;;2.30;;
10013;SDS011;45684;48.358;10.746;2022-09-06T09:02:50;3.30;;;1.98;;
10013;SDS011;45684;48.358;10.746;2022-09-06T09:05:22;2.65;;;1.83;;
10013;SDS011;45684;48.358;10.746;2022-09-06T09:07:58;3.80;;;2.25;;
10013;SDS011;45684;48.358;10.746;2022-09-06T09:10:33;2.17;;;1.90;;
10013;SDS011;45684;48.358;10.746;2022-09-06T09:13:08;2.90;;;2.15;;
10013;SDS011;45684;48.358;10.746;2022-09-06T09:15:45;3.20;;;2.30;;
10013;SDS011;45684;48.358;10.746;2022-09-06T09:18:14;4.45;;;2.50;;
10013;SDS011;45684;48.358;10.746;2022-09-06T09:20:46;4.57;;;2.10;;
10013;SDS011;45684;48.358;10.746;2022-09-06T09:23:14;2.85;;;2.10;;
10013;SDS011;45684;48.358;10.746;2022-09-06T09:25:42;2.50;;;2.10;;
10013;SDS011;45684;48.358;10.746;2022-09-06T09:28:14;3.47;;;2.10;;
10013;SDS011;45684;48.358;10.746;2022-09-06T09:30:45;2.65;;;2.17;;
10013;SDS011;45684;48.358;10.746;2022-09-06T09:33:27;4.07;;;2.30;;
10013;SDS011;45684;48.358;10.746;2022-09-06T09:35:57;3.70;;;2.22;;
10013;SDS011;45684;48.358;10.746;2022-09-06T09:38:26;3.33;;;2.28;;
10013;SDS011;45684;48.358;10.746;2022-09-06T09:40:57;3.30;;;2.30;;
10013;SDS011;45684;48.358;10.746;2022-09-06T09:43:29;3.47;;;2.42;;
10013;SDS011;45684;48.358;10.746;2022-09-06T09:46:11;2.95;;;2.20;;
10013;SDS011;45684;48.358;10.746;2022-09-06T09:48:45;4.25;;;2.42;;
10013;SDS011;45684;48.358;10.746;2022-09-06T09:51:27;2.72;;;2.22;;
10013;SDS011;45684;48.358;10.746;2022-09-06T09:53:57;4.28;;;2.20;;
10013;SDS011;45684;48.358;10.746;2022-09-06T09:56:28;3.40;;;2.00;;
10013;SDS011;45684;48.358;10.746;2022-09-06T09:59:04;3.22;;;1.88;;
10013;SDS011;45684;48.358;10.746;2022-09-06T10:01:42;3.85;;;2.20;;
10013;SDS011;45684;48.358;10.746;2022-09-06T10:04:15;5.30;;;2.20;;
10013;SDS011;45684;48.358;10.746;2022-09-06T10:07:06;2.38;;;1.90;;
10013;SDS011;45684;48.358;10.746;2022-09-06T10:09:36;1.95;;;1.83;;
10013;SDS011;45684;48.358;10.746;2022-09-06T10:12:08;3.35;;;2.20;;
10013;SDS011;45684;48.358;10.746;2022-09-06T10:14:43;2.45;;;1.90;;
10013;SDS011;45684;48.358;10.746;2022-09-06T10:17:20;5.15;;;2.08;;
10013;SDS011;45684;48.358;10.746;2022-09-06T10:19:55;4.20;;;2.10;;
10013;SDS011;45684;48.358;10.746;2022-09-06T10:22:27;4.15;;;1.90;;
10013;SDS011;45684;48.358;10.746;2022-09-06T10:25:12;6.25;;;2.20;;
10013;SDS011;45684;48.358;10.746;2022-09-06T10:27:56;3.67;;;1.92;;
10013;SDS011;45684;48.358;10.746;2022-09-06T10:30:39;5.20;;;2.00;;
10013;SDS011;45684;48.358;10.746;2022-09-06T10:33:15;4.80;;;1.98;;
10013;SDS011;45684;48.358;10.746;2022-09-06T10:35:53;4.43;;;1.92;;
10013;SDS011;45684;48.358;10.746;2022-09-06T10:38:30;5.22;;;1.85;;
10013;SDS011;45684;48.358;10.746;2022-09-06T10:41:21;4.90;;;1.90;;
10013;SDS011;45684;48.358;10.746;2022-09-06T10:44:02;2.80;;;1.90;;
10013;SDS011;45684;48.358;10.746;2022-09-06T10:46:38;4.90;;;2.28;;
10013;SDS011;45684;48.358;10.746;2022-09-06T10:49:12;4.13;;;2.30;;
10013;SDS011;45684;48.358;10.746;2022-09-06T10:51:46;2.67;;;1.67;;
10013;SDS011;45684;48.358;10.746;2022-09-06T10:54:19;3.88;;;2.17;;
10013;SDS011;45684;48.358;10.746;2022-09-06T10:56:49;6.05;;;2.30;;
10013;SDS011;45684;48.358;10.746;2022-09-06T10:59:24;2.75;;;2.38;;
10013;SDS011;45684;48.358;10.746;2022-09-06T11:02:02;5.53;;;2.28;;
10013;SDS011;45684;48.358;10.746;2022-09-06T11:04:40;7.55;;;2.30;;
10013;SDS011;45684;48.358;10.746;2022-09-06T11:07:32;3.30;;;2.25;;
10013;SDS011;45684;48.358;10.746;2022-09-06T11:10:05;4.32;;;2.40;;
10013;SDS011;45684;48.358;10.746;2022-09-06T11:12:37;5.25;;;2.30;;
10013;SDS011;45684;48.358;10.746;2022-09-06T11:15:09;4.78;;;2.33;;
10013;SDS011;45684;48.358;10.746;2022-09-06T11:17:41;3.67;;;2.20;;
10013;SDS011;45684;48.358;10.746;2022-09-06T11:20:13;4.88;;;2.10;;
10013;SDS011;45684;48.358;10.746;2022-09-06T11:26:03;3.80;;;2.10;;
10013;SDS011;45684;48.358;10.746;2022-09-06T11:28:48;3.05;;;2.00;;
10013;SDS011;45684;48.358;10.746;2022-09-06T11:31:21;4.60;;;2.10;;
10013;SDS011;45684;48.358;10.746;2022-09-06T11:34:12;5.82;;;2.30;;
10013;SDS011;45684;48.358;10.746;2022-09-06T11:36:47;3.30;;;2.13;;
10013;SDS011;45684;48.358;10.746;2022-09-06T11:39:24;6.60;;;2.25;;
10013;SDS011;45684;48.358;10.746;2022-09-06T11:45:38;6.90;;;2.30;;
10013;SDS011;45684;48.358;10.746;2022-09-06T11:51:04;6.93;;;2.55;;
10013;SDS011;45684;48.358;10.746;2022-09-06T11:56:33;6.25;;;2.38;;
10013;SDS011;45684;48.358;10.746;2022-09-06T11:59:09;5.90;;;2.50;;
10013;SDS011;45684;48.358;10.746;2022-09-06T12:01:58;4.88;;;2.30;;
10013;SDS011;45684;48.358;10.746;2022-09-06T12:07:29;5.75;;;2.45;;
10013;SDS011;45684;48.358;10.746;2022-09-06T12:09:58;6.93;;;2.28;;
10013;SDS011;45684;48.358;10.746;2022-09-06T12:12:38;3.45;;;2.10;;
10013;SDS011;45684;48.358;10.746;2022-09-06T12:15:23;6.88;;;2.40;;
10013;SDS011;45684;48.358;10.746;2022-09-06T12:17:51;8.93;;;2.40;;
10013;SDS011;45684;48.358;10.746;2022-09-06T12:23:39;5.47;;;2.58;;
10013;SDS011;45684;48.358;10.746;2022-09-06T12:26:08;5.63;;;2.40;;
10013;SDS011;45684;48.358;10.746;2022-09-06T12:28:41;6.63;;;2.70;;
10013;SDS011;45684;48.358;10.746;2022-09-06T12:31:21;6.68;;;2.70;;
10013;SDS011;45684;48.358;10.746;2022-09-06T12:34:11;8.13;;;2.60;;
10013;SDS011;45684;48.358;10.746;2022-09-06T12:36:54;6.38;;;2.40;;
10013;SDS011;45684;48.358;10.746;2022-09-06T12:39:24;5.25;;;2.70;;
10013;SDS011;45684;48.358;10.746;2022-09-06T12:41:54;5.63;;;2.95;;
10013;SDS011;45684;48.358;10.746;2022-09-06T12:44:27;7.78;;;2.72;;
10013;SDS011;45684;48.358;10.746;2022-09-06T12:47:01;5.18;;;2.40;;
10013;SDS011;45684;48.358;10.746;2022-09-06T12:49:33;7.38;;;2.70;;
10013;SDS011;45684;48.358;10.746;2022-09-06T12:52:04;6.97;;;2.55;;
10013;SDS011;45684;48.358;10.746;2022-09-06T12:54:40;7.00;;;2.60;;
10013;SDS011;45684;48.358;10.746;2022-09-06T12:57:15;6.38;;;2.63;;
10013;SDS011;45684;48.358;10.746;2022-09-06T12:59:50;5.95;;;2.30;;
10013;SDS011;45684;48.358;10.746;2022-09-06T13:02:22;7.25;;;2.53;;
10013;SDS011;45684;48.358;10.746;2022-09-06T13:04:59;8.30;;;2.40;;
10013;SDS011;45684;48.358;10.746;2022-09-06T13:07:30;7.00;;;2.72;;
10013;SDS011;45684;48.358;10.746;2022-09-06T13:10:00;6.05;;;2.70;;
10013;SDS011;45684;48.358;10.746;2022-09-06T13:12:30;6.68;;;2.75;;
10013;SDS011;45684;48.358;10.746;2022-09-06T13:15:02;7.55;;;2.47;;
10013;SDS011;45684;48.358;10.746;2022-09-06T13:17:34;3.63;;;2.30;;
10013;SDS011;45684;48.358;10.746;2022-09-06T13:20:10;6.82;;;2.50;;
10013;SDS011;45684;48.358;10.746;2022-09-06T13:22:41;7.13;;;2.78;;
10013;SDS011;45684;48.358;10.746;2022-09-06T13:25:15;5.75;;;2.83;;
10013;SDS011;45684;48.358;10.746;2022-09-06T13:27:51;8.57;;;2.60;;
10013;SDS011;45684;48.358;10.746;2022-09-06T13:30:34;6.50;;;2.70;;
10013;SDS011;45684;48.358;10.746;2022-09-06T13:33:04;5.60;;;2.70;;
10013;SDS011;45684;48.358;10.746;2022-09-06T13:35:34;5.65;;;2.53;;
10013;SDS011;45684;48.358;10.746;2022-09-06T13:41:05;7.32;;;2.47;;
10013;SDS011;45684;48.358;10.746;2022-09-06T13:43:41;6.32;;;2.45;;
10013;SDS011;45684;48.358;10.746;2022-09-06T13:46:16;6.80;;;2.60;;
10013;SDS011;45684;48.358;10.746;2022-09-06T13:48:44;7.75;;;2.70;;
10013;SDS011;45684;48.358;10.746;2022-09-06T13:51:11;6.95;;;2.70;;
10013;SDS011;45684;48.358;10.746;2022-09-06T13:53:39;7.97;;;2.70;;
10013;SDS011;45684;48.358;10.746;2022-09-06T13:56:07;5.03;;;2.35;;
10013;SDS011;45684;48.358;10.746;2022-09-06T13:58:37;8.20;;;2.67;;
10013;SDS011;45684;48.358;10.746;2022-09-06T14:01:05;8.65;;;2.65;;
10013;SDS011;45684;48.358;10.746;2022-09-06T14:03:39;6.40;;;2.63;;
10013;SDS011;45684;48.358;10.746;2022-09-06T14:06:08;6.22;;;2.75;;
10013;SDS011;45684;48.358;10.746;2022-09-06T14:08:36;7.18;;;2.78;;
10013;SDS011;45684;48.358;10.746;2022-09-06T14:11:24;4.35;;;2.63;;
10013;SDS011;45684;48.358;10.746;2022-09-06T14:13:52;3.80;;;2.45;;
10013;SDS011;45684;48.358;10.746;2022-09-06T14:16:20;7.72;;;2.60;;
10013;SDS011;45684;48.358;10.746;2022-09-06T14:18:50;6.65;;;2.60;;
10013;SDS011;45684;48.358;10.746;2022-09-06T14:21:18;6.80;;;2.60;;
10013;SDS011;45684;48.358;10.746;2022-09-06T14:23:47;9.77;;;2.88;;
10013;SDS011;45684;48.358;10.746;2022-09-06T14:26:17;7.45;;;2.83;;
10013;SDS011;45684;48.358;10.746;2022-09-06T14:28:46;4.57;;;2.70;;
10013;SDS011;45684;48.358;10.746;2022-09-06T14:31:14;5.22;;;2.83;;
10013;SDS011;45684;48.358;10.746;2022-09-06T14:33:44;6.85;;;3.10;;
10013;SDS011;45684;48.358;10.746;2022-09-06T14:36:13;6.65;;;2.70;;
10013;SDS011;45684;48.358;10.746;2022-09-06T14:38:43;5.65;;;2.60;;
10013;SDS011;45684;48.358;10.746;2022-09-06T14:41:12;7.28;;;2.65;;
10013;SDS011;45684;48.358;10.746;2022-09-06T14:43:46;5.15;;;2.65;;
10013;SDS011;45684;48.358;10.746;2022-09-06T14:46:16;6.45;;;2.58;;
10013;SDS011;45684;48.358;10.746;2022-09-06T14:48:45;6.65;;;2.70;;
10013;SDS011;45684;48.358;10.746;2022-09-06T14:51:15;7.38;;;3.00;;
10013;SDS011;45684;48.358;10.746;2022-09-06T14:53:47;11.32;;;3.17;;
10013;SDS011;45684;48.358;10.746;2022-09-06T14:56:19;6.93;;;2.80;;
10013;SDS011;45684;48.358;10.746;2022-09-06T14:58:51;8.13;;;2.63;;
10013;SDS011;45684;48.358;10.746;2022-09-06T15:01:23;10.10;;;2.95;;
10013;SDS011;45684;48.358;10.746;2022-09-06T15:03:53;7.47;;;2.67;;
10013;SDS011;45684;48.358;10.746;2022-09-06T15:06:24;6.18;;;2.63;;
10013;SDS011;45684;48.358;10.746;2022-09-06T15:08:53;9.68;;;2.60;;
10013;SDS011;45684;48.358;10.746;2022-09-06T15:11:28;6.22;;;2.60;;
10013;SDS011;45684;48.358;10.746;2022-09-06T15:13:59;8.63;;;2.90;;
10013;SDS011;45684;48.358;10.746;2022-09-06T15:16:28;7.22;;;2.90;;
10013;SDS011;45684;48.358;10.746;2022-09-06T15:18:57;6.45;;;2.70;;
10013;SDS011;45684;48.358;10.746;2022-09-06T15:21:29;8.30;;;2.70;;
10013;SDS011;45684;48.358;10.746;2022-09-06T15:23:58;6.65;;;2.60;;
10013;SDS011;45684;48.358;10.746;2022-09-06T15:26:27;7.30;;;2.75;;